sensor_id;sensor_type;location;lat;lon;timestamp;P1;durP1;ratioP1;P2;durP2;ratioP2
43891;SDS011;29555;45.350;5.578;2022-10-23T00:00:18;2.85;;;1.75;;
43891;SDS011;29555;45.350;5.578;2022-10-23T00:02:44;2.13;;;1.67;;
43891;SDS011;29555;45.350;5.578;2022-10-23T00:05:09;9.35;;;3.40;;
43891;SDS011;29555;45.350;5.578;2022-10-23T00:07:34;5.18;;;3.05;;
43891;SDS011;29555;45.350;5.578;2022-10-23T00:10:00;5.80;;;1.80;;
43891;SDS011;29555;45.350;5.578;2022-10-23T00:12:25;1.42;;;1.33;;
43891;SDS011;29555;45.350;5.578;2022-10-23T00:14:52;4.60;;;2.22;;
43891;SDS011;29555;45.350;5.578;2022-10-23T00:17:17;4.80;;;2.38;;
43891;SDS011;29555;45.350;5.578;2022-10-23T00:19:42;4.53;;;1.48;;
43891;SDS011;29555;45.350;5.578;2022-10-23T00:22:08;5.50;;;3.03;;
43891;SDS011;29555;45.350;5.578;2022-10-23T00:24:35;6.80;;;1.95;;
43891;SDS011;29555;45.350;5.578;2022-10-23T00:27:00;2.83;;;2.08;;
43891;SDS011;29555;45.350;5.578;2022-10-23T00:29:26;8.75;;;2.42;;
43891;SDS011;29555;45.350;5.578;2022-10-23T00:31:52;2.88;;;2.15;;
43891;SDS011;29555;45.350;5.578;2022-10-23T00:34:17;10.95;;;1.40;;
43891;SDS011;29555;45.350;5.578;2022-10-23T00:36:43;6.25;;;3.00;;
43891;SDS011;29555;45.350;5.578;2022-10-23T00:39:08;3.90;;;1.52;;
43891;SDS011;29555;45.350;5.578;2022-10-23T00:41:34;4.05;;;2.35;;
43891;SDS011;29555;45.350;5.578;2022-10-23T00:46:53;2.50;;;1.60;;
43891;SDS011;29555;45.350;5.578;2022-10-23T00:49:19;4.32;;;1.05;;
43891;SDS011;29555;45.350;5.578;2022-10-23T00:51:48;1.67;;;1.58;;
43891;SDS011;29555;45.350;5.578;2022-10-23T00:54:17;1.85;;;1.05;;
43891;SDS011;29555;45.350;5.578;2022-10-23T00:56:45;4.20;;;2.28;;
43891;SDS011;29555;45.350;5.578;2022-10-23T00:59:11;2.17;;;1.90;;
43891;SDS011;29555;45.350;5.578;2022-10-23T01:01:37;5.90;;;3.72;;
43891;SDS011;29555;45.350;5.578;2022-10-23T01:04:03;3.97;;;2.17;;
43891;SDS011;29555;45.350;5.578;2022-10-23T01:09:18;2.47;;;1.35;;
43891;SDS011;29555;45.350;5.578;2022-10-23T01:12:36;5.47;;;2.70;;
43891;SDS011;29555;45.350;5.578;2022-10-23T01:17:40;6.05;;;2.45;;
43891;SDS011;29555;45.350;5.578;2022-10-23T01:20:18;6.70;;;2.72;;
43891;SDS011;29555;45.350;5.578;2022-10-23T01:28:11;5.95;;;2.47;;
43891;SDS011;29555;45.350;5.578;2022-10-23T01:30:45;4.00;;;3.35;;
43891;SDS011;29555;45.350;5.578;2022-10-23T01:33:15;12.63;;;2.85;;
43891;SDS011;29555;45.350;5.578;2022-10-23T01:35:48;2.78;;;2.05;;
43891;SDS011;29555;45.350;5.578;2022-10-23T01:41:01;3.65;;;3.22;;
43891;SDS011;29555;45.350;5.578;2022-10-23T01:43:43;5.28;;;3.60;;
43891;SDS011;29555;45.350;5.578;2022-10-23T01:46:19;12.95;;;2.97;;
43891;SDS011;29555;45.350;5.578;2022-10-23T01:48:47;3.13;;;2.83;;
43891;SDS011;29555;45.350;5.578;2022-10-23T01:51:16;4.78;;;2.75;;
43891;SDS011;29555;45.350;5.578;2022-10-23T01:53:45;5.47;;;2.45;;
43891;SDS011;29555;45.350;5.578;2022-10-23T01:56:14;3.83;;;2.63;;
43891;SDS011;29555;45.350;5.578;2022-10-23T01:58:51;10.32;;;4.75;;
43891;SDS011;29555;45.350;5.578;2022-10-23T02:01:20;4.32;;;2.47;;
43891;SDS011;29555;45.350;5.578;2022-10-23T02:03:47;7.38;;;3.47;;
43891;SDS011;29555;45.350;5.578;2022-10-23T02:06:14;5.35;;;3.85;;
43891;SDS011;29555;45.350;5.578;2022-10-23T02:08:39;7.38;;;2.95;;
43891;SDS011;29555;45.350;5.578;2022-10-23T02:13:41;9.07;;;4.63;;
43891;SDS011;29555;45.350;5.578;2022-10-23T02:19:08;10.68;;;3.95;;
43891;SDS011;29555;45.350;5.578;2022-10-23T02:24:27;9.07;;;3.92;;
43891;SDS011;29555;45.350;5.578;2022-10-23T02:26:58;17.98;;;4.25;;
43891;SDS011;29555;45.350;5.578;2022-10-23T02:32:00;5.68;;;3.13;;
43891;SDS011;29555;45.350;5.578;2022-10-23T02:34:26;7.38;;;2.88;;
43891;SDS011;29555;45.350;5.578;2022-10-23T02:36:52;10.13;;;4.18;;
43891;SDS011;29555;45.350;5.578;2022-10-23T02:39:17;8.90;;;3.70;;
43891;SDS011;29555;45.350;5.578;2022-10-23T02:41:53;12.45;;;4.88;;
43891;SDS011;29555;45.350;5.578;2022-10-23T02:44:26;10.15;;;3.35;;
43891;SDS011;29555;45.350;5.578;2022-10-23T02:49:56;14.82;;;3.45;;
43891;SDS011;29555;45.350;5.578;2022-10-23T02:52:35;7.47;;;3.65;;
43891;SDS011;29555;45.350;5.578;2022-10-23T02:58:09;5.93;;;4.10;;
43891;SDS011;29555;45.350;5.578;2022-10-23T03:00:42;9.90;;;3.70;;
43891;SDS011;29555;45.350;5.578;2022-10-23T03:03:16;18.60;;;3.67;;
43891;SDS011;29555;45.350;5.578;2022-10-23T03:05:46;12.45;;;3.47;;
43891;SDS011;29555;45.350;5.578;2022-10-23T03:08:12;11.00;;;3.10;;
43891;SDS011;29555;45.350;5.578;2022-10-23T03:10:38;11.77;;;2.97;;
43891;SDS011;29555;45.350;5.578;2022-10-23T03:13:04;4.47;;;3.47;;
43891;SDS011;29555;45.350;5.578;2022-10-23T03:15:29;4.45;;;3.35;;
43891;SDS011;29555;45.350;5.578;2022-10-23T03:17:55;6.20;;;3.95;;
43891;SDS011;29555;45.350;5.578;2022-10-23T03:20:20;14.45;;;4.72;;
43891;SDS011;29555;45.350;5.578;2022-10-23T03:22:46;12.25;;;5.18;;
43891;SDS011;29555;45.350;5.578;2022-10-23T03:25:11;13.50;;;4.45;;
43891;SDS011;29555;45.350;5.578;2022-10-23T03:27:37;12.85;;;4.63;;
43891;SDS011;29555;45.350;5.578;2022-10-23T03:30:02;11.52;;;3.95;;
43891;SDS011;29555;45.350;5.578;2022-10-23T03:32:29;11.90;;;5.05;;
43891;SDS011;29555;45.350;5.578;2022-10-23T03:34:54;4.75;;;3.58;;
43891;SDS011;29555;45.350;5.578;2022-10-23T03:37:20;13.13;;;5.25;;
43891;SDS011;29555;45.350;5.578;2022-10-23T03:39:45;7.55;;;4.10;;
43891;SDS011;29555;45.350;5.578;2022-10-23T03:42:11;5.00;;;3.38;;
43891;SDS011;29555;45.350;5.578;2022-10-23T03:44:36;4.65;;;3.33;;
43891;SDS011;29555;45.350;5.578;2022-10-23T03:47:01;3.53;;;3.17;;
43891;SDS011;29555;45.350;5.578;2022-10-23T03:49:27;6.53;;;4.22;;
43891;SDS011;29555;45.350;5.578;2022-10-23T03:51:52;10.57;;;4.43;;
43891;SDS011;29555;45.350;5.578;2022-10-23T03:54:22;5.63;;;4.07;;
43891;SDS011;29555;45.350;5.578;2022-10-23T03:56:50;5.28;;;4.13;;
43891;SDS011;29555;45.350;5.578;2022-10-23T03:59:16;5.53;;;3.35;;
43891;SDS011;29555;45.350;5.578;2022-10-23T04:01:41;5.22;;;2.55;;
43891;SDS011;29555;45.350;5.578;2022-10-23T04:04:07;5.15;;;3.50;;
43891;SDS011;29555;45.350;5.578;2022-10-23T04:06:33;7.57;;;4.10;;
43891;SDS011;29555;45.350;5.578;2022-10-23T04:08:58;6.13;;;3.72;;
43891;SDS011;29555;45.350;5.578;2022-10-23T04:11:24;11.45;;;4.80;;
43891;SDS011;29555;45.350;5.578;2022-10-23T04:13:49;12.57;;;3.97;;
43891;SDS011;29555;45.350;5.578;2022-10-23T04:16:14;6.40;;;4.32;;
43891;SDS011;29555;45.350;5.578;2022-10-23T04:18:40;7.35;;;3.45;;
43891;SDS011;29555;45.350;5.578;2022-10-23T04:21:06;5.80;;;4.07;;
43891;SDS011;29555;45.350;5.578;2022-10-23T04:23:31;13.32;;;4.55;;
43891;SDS011;29555;45.350;5.578;2022-10-23T04:25:57;10.07;;;3.88;;
43891;SDS011;29555;45.350;5.578;2022-10-23T04:28:23;23.42;;;4.80;;
43891;SDS011;29555;45.350;5.578;2022-10-23T04:30:48;5.32;;;3.70;;
43891;SDS011;29555;45.350;5.578;2022-10-23T04:33:14;7.20;;;4.28;;
43891;SDS011;29555;45.350;5.578;2022-10-23T04:35:39;13.18;;;4.53;;
43891;SDS011;29555;45.350;5.578;2022-10-23T04:38:04;12.70;;;4.43;;
43891;SDS011;29555;45.350;5.578;2022-10-23T04:40:30;9.75;;;3.28;;
43891;SDS011;29555;45.350;5.578;2022-10-23T04:42:55;7.60;;;4.45;;
43891;SDS011;29555;45.350;5.578;2022-10-23T04:45:20;6.97;;;4.18;;
43891;SDS011;29555;45.350;5.578;2022-10-23T04:47:46;5.72;;;3.30;;
43891;SDS011;29555;45.350;5.578;2022-10-23T04:50:11;6.38;;;4.70;;
43891;SDS011;29555;45.350;5.578;2022-10-23T04:52:37;5.72;;;4.57;;
43891;SDS011;29555;45.350;5.578;2022-10-23T04:55:02;4.75;;;3.85;;
43891;SDS011;29555;45.350;5.578;2022-10-23T04:57:28;8.20;;;3.72;;
43891;SDS011;29555;45.350;5.578;2022-10-23T04:59:53;12.85;;;5.45;;
43891;SDS011;29555;45.350;5.578;2022-10-23T05:02:19;6.32;;;4.38;;
43891;SDS011;29555;45.350;5.578;2022-10-23T05:04:44;7.20;;;4.10;;
43891;SDS011;29555;45.350;5.578;2022-10-23T05:07:09;8.73;;;5.35;;
43891;SDS011;29555;45.350;5.578;2022-10-23T05:09:35;9.25;;;5.07;;
43891;SDS011;29555;45.350;5.578;2022-10-23T05:12:00;8.10;;;4.85;;
43891;SDS011;29555;45.350;5.578;2022-10-23T05:14:25;7.35;;;3.83;;
43891;SDS011;29555;45.350;5.578;2022-10-23T05:17:02;8.00;;;4.63;;
43891;SDS011;29555;45.350;5.578;2022-10-23T05:19:37;15.55;;;4.55;;
43891;SDS011;29555;45.350;5.578;2022-10-23T05:22:06;8.23;;;4.75;;
43891;SDS011;29555;45.350;5.578;2022-10-23T05:24:33;7.18;;;4.95;;
43891;SDS011;29555;45.350;5.578;2022-10-23T05:26:58;9.90;;;4.90;;
43891;SDS011;29555;45.350;5.578;2022-10-23T05:29:24;8.07;;;5.38;;
43891;SDS011;29555;45.350;5.578;2022-10-23T05:31:49;8.93;;;5.65;;
43891;SDS011;29555;45.350;5.578;2022-10-23T05:34:19;7.95;;;4.50;;
43891;SDS011;29555;45.350;5.578;2022-10-23T05:36:49;5.88;;;4.90;;
43891;SDS011;29555;45.350;5.578;2022-10-23T05:39:15;8.13;;;5.32;;
43891;SDS011;29555;45.350;5.578;2022-10-23T05:41:40;4.93;;;4.32;;
43891;SDS011;29555;45.350;5.578;2022-10-23T05:44:06;12.98;;;4.72;;
43891;SDS011;29555;45.350;5.578;2022-10-23T05:46:31;11.23;;;6.78;;
43891;SDS011;29555;45.350;5.578;2022-10-23T05:48:56;4.95;;;4.28;;
43891;SDS011;29555;45.350;5.578;2022-10-23T05:51:22;5.28;;;4.40;;
43891;SDS011;29555;45.350;5.578;2022-10-23T05:53:48;7.03;;;4.10;;
43891;SDS011;29555;45.350;5.578;2022-10-23T05:56:14;14.23;;;5.65;;
43891;SDS011;29555;45.350;5.578;2022-10-23T05:58:40;5.53;;;4.53;;
43891;SDS011;29555;45.350;5.578;2022-10-23T06:01:07;7.07;;;4.97;;
43891;SDS011;29555;45.350;5.578;2022-10-23T06:03:35;10.57;;;5.00;;
43891;SDS011;29555;45.350;5.578;2022-10-23T06:06:01;11.55;;;4.95;;
43891;SDS011;29555;45.350;5.578;2022-10-23T06:08:27;8.52;;;5.63;;
43891;SDS011;29555;45.350;5.578;2022-10-23T06:10:54;9.88;;;5.32;;
43891;SDS011;29555;45.350;5.578;2022-10-23T06:13:20;5.00;;;3.58;;
43891;SDS011;29555;45.350;5.578;2022-10-23T06:15:47;5.25;;;3.65;;
43891;SDS011;29555;45.350;5.578;2022-10-23T06:18:12;7.38;;;3.60;;
43891;SDS011;29555;45.350;5.578;2022-10-23T06:20:38;9.60;;;5.63;;
43891;SDS011;29555;45.350;5.578;2022-10-23T06:23:04;7.00;;;3.35;;
43891;SDS011;29555;45.350;5.578;2022-10-23T06:25:30;13.23;;;4.82;;
43891;SDS011;29555;45.350;5.578;2022-10-23T06:27:55;16.45;;;4.53;;
43891;SDS011;29555;45.350;5.578;2022-10-23T06:30:21;6.60;;;4.15;;
43891;SDS011;29555;45.350;5.578;2022-10-23T06:32:46;5.82;;;4.45;;
43891;SDS011;29555;45.350;5.578;2022-10-23T06:35:12;11.43;;;5.80;;
43891;SDS011;29555;45.350;5.578;2022-10-23T06:37:38;18.13;;;6.05;;
43891;SDS011;29555;45.350;5.578;2022-10-23T06:40:04;11.30;;;5.30;;
43891;SDS011;29555;45.350;5.578;2022-10-23T06:42:33;8.65;;;5.32;;
43891;SDS011;29555;45.350;5.578;2022-10-23T06:44:59;20.13;;;5.00;;
43891;SDS011;29555;45.350;5.578;2022-10-23T06:47:24;15.55;;;5.65;;
43891;SDS011;29555;45.350;5.578;2022-10-23T06:49:50;10.60;;;5.53;;
43891;SDS011;29555;45.350;5.578;2022-10-23T06:52:15;9.43;;;4.45;;
43891;SDS011;29555;45.350;5.578;2022-10-23T06:54:40;8.07;;;4.05;;
43891;SDS011;29555;45.350;5.578;2022-10-23T06:57:06;9.95;;;5.82;;
43891;SDS011;29555;45.350;5.578;2022-10-23T06:59:31;14.60;;;4.63;;
43891;SDS011;29555;45.350;5.578;2022-10-23T07:01:56;12.18;;;6.15;;
43891;SDS011;29555;45.350;5.578;2022-10-23T07:04:22;10.35;;;5.35;;
43891;SDS011;29555;45.350;5.578;2022-10-23T07:06:47;14.77;;;4.35;;
43891;SDS011;29555;45.350;5.578;2022-10-23T07:09:13;8.50;;;5.80;;
43891;SDS011;29555;45.350;5.578;2022-10-23T07:11:38;21.50;;;4.78;;
43891;SDS011;29555;45.350;5.578;2022-10-23T07:14:03;8.30;;;4.57;;
43891;SDS011;29555;45.350;5.578;2022-10-23T07:16:29;9.40;;;3.95;;
43891;SDS011;29555;45.350;5.578;2022-10-23T07:18:56;7.82;;;4.88;;
43891;SDS011;29555;45.350;5.578;2022-10-23T07:21:26;10.55;;;4.82;;
43891;SDS011;29555;45.350;5.578;2022-10-23T07:23:56;18.00;;;4.82;;
43891;SDS011;29555;45.350;5.578;2022-10-23T07:26:22;20.60;;;5.20;;
43891;SDS011;29555;45.350;5.578;2022-10-23T07:28:48;5.78;;;3.67;;
43891;SDS011;29555;45.350;5.578;2022-10-23T07:31:18;14.02;;;4.00;;
43891;SDS011;29555;45.350;5.578;2022-10-23T07:33:44;12.50;;;4.35;;
43891;SDS011;29555;45.350;5.578;2022-10-23T07:36:10;20.75;;;7.03;;
43891;SDS011;29555;45.350;5.578;2022-10-23T07:38:35;16.13;;;5.43;;
43891;SDS011;29555;45.350;5.578;2022-10-23T07:41:00;12.52;;;6.72;;
43891;SDS011;29555;45.350;5.578;2022-10-23T07:43:26;13.13;;;5.88;;
43891;SDS011;29555;45.350;5.578;2022-10-23T07:45:52;9.68;;;6.18;;
43891;SDS011;29555;45.350;5.578;2022-10-23T07:48:17;9.25;;;5.05;;
43891;SDS011;29555;45.350;5.578;2022-10-23T07:50:44;13.82;;;5.05;;
43891;SDS011;29555;45.350;5.578;2022-10-23T07:53:14;7.25;;;4.75;;
43891;SDS011;29555;45.350;5.578;2022-10-23T07:55:42;11.38;;;5.35;;
43891;SDS011;29555;45.350;5.578;2022-10-23T07:58:08;9.98;;;5.55;;
43891;SDS011;29555;45.350;5.578;2022-10-23T08:00:33;12.90;;;5.95;;
43891;SDS011;29555;45.350;5.578;2022-10-23T08:02:59;14.05;;;5.15;;
43891;SDS011;29555;45.350;5.578;2022-10-23T08:05:24;12.25;;;5.72;;
43891;SDS011;29555;45.350;5.578;2022-10-23T08:07:50;25.10;;;7.35;;
43891;SDS011;29555;45.350;5.578;2022-10-23T08:10:15;22.20;;;7.00;;
43891;SDS011;29555;45.350;5.578;2022-10-23T08:12:41;12.25;;;4.22;;
43891;SDS011;29555;45.350;5.578;2022-10-23T08:15:06;12.57;;;5.43;;
43891;SDS011;29555;45.350;5.578;2022-10-23T08:17:32;6.50;;;4.25;;
43891;SDS011;29555;45.350;5.578;2022-10-23T08:19:57;8.90;;;4.55;;
43891;SDS011;29555;45.350;5.578;2022-10-23T08:22:22;10.95;;;4.53;;
43891;SDS011;29555;45.350;5.578;2022-10-23T08:24:48;10.82;;;4.53;;
43891;SDS011;29555;45.350;5.578;2022-10-23T08:27:13;6.53;;;3.88;;
43891;SDS011;29555;45.350;5.578;2022-10-23T08:29:39;15.02;;;5.88;;
43891;SDS011;29555;45.350;5.578;2022-10-23T08:32:04;8.00;;;4.18;;
43891;SDS011;29555;45.350;5.578;2022-10-23T08:34:29;11.55;;;4.50;;
43891;SDS011;29555;45.350;5.578;2022-10-23T08:36:55;7.38;;;4.20;;
43891;SDS011;29555;45.350;5.578;2022-10-23T08:39:20;10.88;;;3.80;;
43891;SDS011;29555;45.350;5.578;2022-10-23T08:41:47;8.88;;;4.32;;
43891;SDS011;29555;45.350;5.578;2022-10-23T08:44:29;8.18;;;4.65;;
43891;SDS011;29555;45.350;5.578;2022-10-23T08:47:14;12.50;;;5.32;;
43891;SDS011;29555;45.350;5.578;2022-10-23T08:49:50;6.97;;;3.65;;
43891;SDS011;29555;45.350;5.578;2022-10-23T08:55:21;5.25;;;3.70;;
43891;SDS011;29555;45.350;5.578;2022-10-23T08:57:59;4.68;;;2.35;;
43891;SDS011;29555;45.350;5.578;2022-10-23T09:00:29;16.85;;;4.07;;
43891;SDS011;29555;45.350;5.578;2022-10-23T09:02:55;28.90;;;4.53;;
43891;SDS011;29555;45.350;5.578;2022-10-23T09:05:24;8.60;;;3.80;;
43891;SDS011;29555;45.350;5.578;2022-10-23T09:10:47;13.18;;;7.30;;
43891;SDS011;29555;45.350;5.578;2022-10-23T09:13:20;8.90;;;6.63;;
43891;SDS011;29555;45.350;5.578;2022-10-23T09:15:47;16.85;;;6.00;;
43891;SDS011;29555;45.350;5.578;2022-10-23T09:18:22;12.73;;;6.18;;
43891;SDS011;29555;45.350;5.578;2022-10-23T09:20:48;9.40;;;4.90;;
43891;SDS011;29555;45.350;5.578;2022-10-23T09:23:17;9.10;;;4.72;;
43891;SDS011;29555;45.350;5.578;2022-10-23T09:25:45;18.10;;;5.43;;
43891;SDS011;29555;45.350;5.578;2022-10-23T09:28:19;16.15;;;5.35;;
43891;SDS011;29555;45.350;5.578;2022-10-23T09:30:47;12.45;;;5.28;;
43891;SDS011;29555;45.350;5.578;2022-10-23T09:33:18;13.35;;;5.63;;
43891;SDS011;29555;45.350;5.578;2022-10-23T09:38:30;12.55;;;5.75;;
43891;SDS011;29555;45.350;5.578;2022-10-23T09:40:59;12.20;;;5.65;;
43891;SDS011;29555;45.350;5.578;2022-10-23T09:43:31;9.55;;;5.47;;
43891;SDS011;29555;45.350;5.578;2022-10-23T09:45:58;6.80;;;4.38;;
43891;SDS011;29555;45.350;5.578;2022-10-23T09:48:27;12.10;;;6.60;;
43891;SDS011;29555;45.350;5.578;2022-10-23T09:50:54;25.13;;;9.15;;
43891;SDS011;29555;45.350;5.578;2022-10-23T09:53:32;15.05;;;7.68;;
43891;SDS011;29555;45.350;5.578;2022-10-23T09:56:00;16.40;;;7.35;;
43891;SDS011;29555;45.350;5.578;2022-10-23T09:58:36;22.70;;;6.10;;
43891;SDS011;29555;45.350;5.578;2022-10-23T10:01:04;22.65;;;7.07;;
43891;SDS011;29555;45.350;5.578;2022-10-23T10:03:30;18.95;;;5.60;;
43891;SDS011;29555;45.350;5.578;2022-10-23T10:08:33;15.88;;;4.82;;
43891;SDS011;29555;45.350;5.578;2022-10-23T10:11:15;10.77;;;4.38;;
43891;SDS011;29555;45.350;5.578;2022-10-23T10:14:05;12.27;;;6.15;;
43891;SDS011;29555;45.350;5.578;2022-10-23T10:25:00;19.20;;;7.30;;
43891;SDS011;29555;45.350;5.578;2022-10-23T10:33:05;21.98;;;6.57;;
43891;SDS011;29555;45.350;5.578;2022-10-23T10:38:26;13.73;;;5.85;;
43891;SDS011;29555;45.350;5.578;2022-10-23T10:49:26;15.85;;;6.55;;
43891;SDS011;29555;45.350;5.578;2022-10-23T11:00:20;9.82;;;5.65;;
43891;SDS011;29555;45.350;5.578;2022-10-23T11:02:48;7.72;;;4.13;;
43891;SDS011;29555;45.350;5.578;2022-10-23T11:05:28;12.00;;;4.63;;
43891;SDS011;29555;45.350;5.578;2022-10-23T11:08:03;11.93;;;5.03;;
43891;SDS011;29555;45.350;5.578;2022-10-23T11:10:31;16.15;;;5.95;;
43891;SDS011;29555;45.350;5.578;2022-10-23T11:12:58;10.43;;;4.97;;
43891;SDS011;29555;45.350;5.578;2022-10-23T11:15:27;28.92;;;5.40;;
43891;SDS011;29555;45.350;5.578;2022-10-23T11:18:03;13.25;;;6.72;;
43891;SDS011;29555;45.350;5.578;2022-10-23T11:20:45;8.63;;;5.22;;
43891;SDS011;29555;45.350;5.578;2022-10-23T11:37:27;25.13;;;6.45;;
43891;SDS011;29555;45.350;5.578;2022-10-23T11:40:00;20.10;;;5.00;;
43891;SDS011;29555;45.350;5.578;2022-10-23T11:47:59;13.93;;;5.07;;
43891;SDS011;29555;45.350;5.578;2022-10-23T11:50:49;13.57;;;6.10;;
43891;SDS011;29555;45.350;5.578;2022-10-23T11:58:22;7.78;;;4.75;;
43891;SDS011;29555;45.350;5.578;2022-10-23T12:01:00;11.13;;;5.82;;
43891;SDS011;29555;45.350;5.578;2022-10-23T12:03:34;11.55;;;5.30;;
43891;SDS011;29555;45.350;5.578;2022-10-23T12:06:18;18.85;;;6.88;;
43891;SDS011;29555;45.350;5.578;2022-10-23T12:08:48;13.23;;;4.60;;
43891;SDS011;29555;45.350;5.578;2022-10-23T12:11:26;10.70;;;6.25;;
43891;SDS011;29555;45.350;5.578;2022-10-23T12:16:51;12.77;;;5.82;;
43891;SDS011;29555;45.350;5.578;2022-10-23T12:19:18;11.10;;;5.28;;
43891;SDS011;29555;45.350;5.578;2022-10-23T12:21:45;12.32;;;4.97;;
43891;SDS011;29555;45.350;5.578;2022-10-23T12:24:25;13.32;;;5.30;;
43891;SDS011;29555;45.350;5.578;2022-10-23T12:27:29;20.48;;;6.45;;
43891;SDS011;29555;45.350;5.578;2022-10-23T12:33:29;13.10;;;5.88;;
43891;SDS011;29555;45.350;5.578;2022-10-23T12:38:41;16.30;;;5.70;;
43891;SDS011;29555;45.350;5.578;2022-10-23T12:41:13;9.60;;;4.90;;
43891;SDS011;29555;45.350;5.578;2022-10-23T12:43:41;22.83;;;5.35;;
43891;SDS011;29555;45.350;5.578;2022-10-23T12:48:53;21.77;;;5.68;;
43891;SDS011;29555;45.350;5.578;2022-10-23T12:51:38;16.40;;;5.57;;
43891;SDS011;29555;45.350;5.578;2022-10-23T12:54:12;13.10;;;4.60;;
43891;SDS011;29555;45.350;5.578;2022-10-23T12:56:43;19.25;;;6.30;;
43891;SDS011;29555;45.350;5.578;2022-10-23T12:59:13;18.15;;;5.85;;
43891;SDS011;29555;45.350;5.578;2022-10-23T13:01:42;18.33;;;5.53;;
43891;SDS011;29555;45.350;5.578;2022-10-23T13:06:48;19.65;;;4.43;;
43891;SDS011;29555;45.350;5.578;2022-10-23T13:09:26;16.35;;;5.35;;
43891;SDS011;29555;45.350;5.578;2022-10-23T13:14:28;16.00;;;4.85;;
43891;SDS011;29555;45.350;5.578;2022-10-23T13:17:03;20.75;;;5.93;;
43891;SDS011;29555;45.350;5.578;2022-10-23T13:19:30;14.18;;;5.10;;
43891;SDS011;29555;45.350;5.578;2022-10-23T13:21:57;17.35;;;5.40;;
43891;SDS011;29555;45.350;5.578;2022-10-23T13:24:23;8.20;;;5.30;;
43891;SDS011;29555;45.350;5.578;2022-10-23T13:26:51;28.58;;;7.13;;
43891;SDS011;29555;45.350;5.578;2022-10-23T13:31:42;17.83;;;6.40;;
43891;SDS011;29555;45.350;5.578;2022-10-23T13:34:13;13.20;;;5.00;;
43891;SDS011;29555;45.350;5.578;2022-10-23T13:36:48;9.45;;;4.70;;
43891;SDS011;29555;45.350;5.578;2022-10-23T13:39:16;18.55;;;5.28;;
43891;SDS011;29555;45.350;5.578;2022-10-23T13:41:47;7.38;;;4.88;;
43891;SDS011;29555;45.350;5.578;2022-10-23T13:44:17;27.88;;;5.72;;
43891;SDS011;29555;45.350;5.578;2022-10-23T13:46:45;22.87;;;5.93;;
43891;SDS011;29555;45.350;5.578;2022-10-23T13:49:12;9.93;;;5.20;;
43891;SDS011;29555;45.350;5.578;2022-10-23T13:51:48;16.33;;;5.30;;
43891;SDS011;29555;45.350;5.578;2022-10-23T13:54:18;17.63;;;6.40;;
43891;SDS011;29555;45.350;5.578;2022-10-23T13:56:45;14.73;;;6.90;;
43891;SDS011;29555;45.350;5.578;2022-10-23T13:59:11;21.23;;;5.28;;
43891;SDS011;29555;45.350;5.578;2022-10-23T14:01:37;25.08;;;6.53;;
43891;SDS011;29555;45.350;5.578;2022-10-23T14:04:03;17.88;;;5.80;;
43891;SDS011;29555;45.350;5.578;2022-10-23T14:06:30;10.70;;;5.28;;
43891;SDS011;29555;45.350;5.578;2022-10-23T14:08:56;18.38;;;6.18;;
43891;SDS011;29555;45.350;5.578;2022-10-23T14:11:22;21.55;;;5.95;;
43891;SDS011;29555;45.350;5.578;2022-10-23T14:13:48;21.20;;;5.97;;
43891;SDS011;29555;45.350;5.578;2022-10-23T14:16:14;7.10;;;4.40;;
43891;SDS011;29555;45.350;5.578;2022-10-23T14:18:41;15.05;;;5.60;;
43891;SDS011;29555;45.350;5.578;2022-10-23T14:21:10;24.38;;;7.38;;
43891;SDS011;29555;45.350;5.578;2022-10-23T14:23:36;12.55;;;4.60;;
43891;SDS011;29555;45.350;5.578;2022-10-23T14:26:02;21.52;;;7.13;;
43891;SDS011;29555;45.350;5.578;2022-10-23T14:28:32;12.63;;;5.68;;
43891;SDS011;29555;45.350;5.578;2022-10-23T14:33:53;16.80;;;6.38;;
43891;SDS011;29555;45.350;5.578;2022-10-23T14:36:21;20.85;;;5.07;;
43891;SDS011;29555;45.350;5.578;2022-10-23T14:38:46;24.20;;;4.78;;
43891;SDS011;29555;45.350;5.578;2022-10-23T14:41:12;8.18;;;6.13;;
43891;SDS011;29555;45.350;5.578;2022-10-23T14:43:39;15.15;;;6.57;;
43891;SDS011;29555;45.350;5.578;2022-10-23T14:46:07;15.80;;;4.10;;
43891;SDS011;29555;45.350;5.578;2022-10-23T14:48:34;21.55;;;6.65;;
43891;SDS011;29555;45.350;5.578;2022-10-23T14:51:01;25.70;;;5.72;;
43891;SDS011;29555;45.350;5.578;2022-10-23T14:53:28;18.05;;;6.15;;
43891;SDS011;29555;45.350;5.578;2022-10-23T14:55:59;11.25;;;5.25;;
43891;SDS011;29555;45.350;5.578;2022-10-23T14:58:25;29.85;;;6.90;;
43891;SDS011;29555;45.350;5.578;2022-10-23T15:01:00;10.63;;;6.60;;
43891;SDS011;29555;45.350;5.578;2022-10-23T15:03:26;12.30;;;6.32;;
43891;SDS011;29555;45.350;5.578;2022-10-23T15:05:52;15.55;;;4.53;;
43891;SDS011;29555;45.350;5.578;2022-10-23T15:08:18;9.88;;;5.20;;
43891;SDS011;29555;45.350;5.578;2022-10-23T15:10:44;19.20;;;5.05;;
43891;SDS011;29555;45.350;5.578;2022-10-23T15:13:10;6.68;;;4.65;;
43891;SDS011;29555;45.350;5.578;2022-10-23T15:15:35;9.65;;;4.57;;
43891;SDS011;29555;45.350;5.578;2022-10-23T15:18:01;28.70;;;5.28;;
43891;SDS011;29555;45.350;5.578;2022-10-23T15:20:26;15.30;;;4.93;;
43891;SDS011;29555;45.350;5.578;2022-10-23T15:22:51;20.90;;;5.70;;
43891;SDS011;29555;45.350;5.578;2022-10-23T15:25:17;8.05;;;5.47;;
43891;SDS011;29555;45.350;5.578;2022-10-23T15:27:42;17.20;;;6.88;;
43891;SDS011;29555;45.350;5.578;2022-10-23T15:30:07;13.30;;;6.45;;
43891;SDS011;29555;45.350;5.578;2022-10-23T15:32:33;9.27;;;5.28;;
43891;SDS011;29555;45.350;5.578;2022-10-23T15:34:58;14.82;;;4.95;;
43891;SDS011;29555;45.350;5.578;2022-10-23T15:37:24;20.67;;;7.90;;
43891;SDS011;29555;45.350;5.578;2022-10-23T15:39:50;16.65;;;5.47;;
43891;SDS011;29555;45.350;5.578;2022-10-23T15:42:16;24.70;;;5.13;;
43891;SDS011;29555;45.350;5.578;2022-10-23T15:44:43;13.48;;;6.40;;
43891;SDS011;29555;45.350;5.578;2022-10-23T15:47:08;7.88;;;4.60;;
43891;SDS011;29555;45.350;5.578;2022-10-23T15:49:34;11.05;;;4.72;;
43891;SDS011;29555;45.350;5.578;2022-10-23T15:51:59;10.80;;;5.82;;
43891;SDS011;29555;45.350;5.578;2022-10-23T15:54:26;17.15;;;4.63;;
43891;SDS011;29555;45.350;5.578;2022-10-23T15:56:52;14.63;;;5.28;;
43891;SDS011;29555;45.350;5.578;2022-10-23T15:59:18;19.50;;;5.55;;
43891;SDS011;29555;45.350;5.578;2022-10-23T16:01:45;21.48;;;6.10;;
43891;SDS011;29555;45.350;5.578;2022-10-23T16:04:12;24.23;;;6.55;;
43891;SDS011;29555;45.350;5.578;2022-10-23T16:06:37;12.48;;;5.70;;
43891;SDS011;29555;45.350;5.578;2022-10-23T16:09:03;17.40;;;6.50;;
43891;SDS011;29555;45.350;5.578;2022-10-23T16:11:30;11.80;;;5.53;;
43891;SDS011;29555;45.350;5.578;2022-10-23T16:13:58;11.18;;;5.57;;
43891;SDS011;29555;45.350;5.578;2022-10-23T16:16:24;12.68;;;5.75;;
43891;SDS011;29555;45.350;5.578;2022-10-23T16:18:50;10.55;;;6.97;;
43891;SDS011;29555;45.350;5.578;2022-10-23T16:21:17;19.80;;;8.05;;
43891;SDS011;29555;45.350;5.578;2022-10-23T16:23:48;10.40;;;5.63;;
43891;SDS011;29555;45.350;5.578;2022-10-23T16:26:14;20.48;;;7.07;;
43891;SDS011;29555;45.350;5.578;2022-10-23T16:28:40;24.55;;;7.07;;
43891;SDS011;29555;45.350;5.578;2022-10-23T16:31:11;22.17;;;7.15;;
43891;SDS011;29555;45.350;5.578;2022-10-23T16:33:41;13.52;;;7.45;;
43891;SDS011;29555;45.350;5.578;2022-10-23T16:36:07;27.00;;;7.95;;
43891;SDS011;29555;45.350;5.578;2022-10-23T16:38:33;19.60;;;7.03;;
43891;SDS011;29555;45.350;5.578;2022-10-23T16:40:59;16.88;;;7.85;;
43891;SDS011;29555;45.350;5.578;2022-10-23T16:43:25;11.82;;;6.60;;
43891;SDS011;29555;45.350;5.578;2022-10-23T16:46:04;16.50;;;5.80;;
43891;SDS011;29555;45.350;5.578;2022-10-23T16:48:37;12.07;;;5.45;;
43891;SDS011;29555;45.350;5.578;2022-10-23T16:51:10;12.63;;;6.88;;